createdAt,value
2022-10-26T00:00:53.495Z,9.43
2022-10-26T00:03:19.954Z,9.63
2022-10-26T00:05:46.390Z,9.59
2022-10-26T00:08:12.968Z,9.55
2022-10-26T00:10:39.903Z,9.48
2022-10-26T00:13:10.697Z,9.54
2022-10-26T00:15:40.637Z,9.49
2022-10-26T00:18:07.040Z,9.29
2022-10-26T00:20:33.426Z,9.45
2022-10-26T00:22:59.828Z,9.50
2022-10-26T00:25:26.337Z,9.32
2022-10-26T00:27:53.147Z,9.28
2022-10-26T00:30:19.594Z,9.46
2022-10-26T00:32:45.989Z,9.38
2022-10-26T00:35:22.887Z,9.45
2022-10-26T00:37:55.899Z,9.21
2022-10-26T00:40:22.663Z,9.32
2022-10-26T00:42:49.359Z,9.24
2022-10-26T00:45:15.996Z,9.24
2022-10-26T00:47:48.721Z,9.29
2022-10-26T00:50:22.602Z,9.34
2022-10-26T00:52:51.496Z,9.31
2022-10-26T00:55:21.335Z,9.35
2022-10-26T00:57:51.767Z,9.35
2022-10-26T01:00:18.732Z,9.30
2022-10-26T01:02:48.006Z,9.37
2022-10-26T01:09:01.189Z,9.33
2022-10-26T01:11:28.790Z,9.29
2022-10-26T01:13:57.130Z,9.26
2022-10-26T01:16:46.095Z,9.28
2022-10-26T01:19:45.610Z,9.29
2022-10-26T01:22:11.956Z,9.25
2022-10-26T01:25:17.069Z,9.33
2022-10-26T01:27:47.898Z,9.33
2022-10-26T01:30:30.388Z,9.30
2022-10-26T01:33:17.559Z,9.28
2022-10-26T01:36:08.342Z,9.26
2022-10-26T01:38:57.587Z,9.30
2022-10-26T01:41:31.860Z,9.35
2022-10-26T01:44:28.749Z,9.30
2022-10-26T01:46:57.841Z,9.27
2022-10-26T01:49:28.977Z,9.26
2022-10-26T01:51:55.378Z,9.26
2022-10-26T01:54:21.802Z,9.18
2022-10-26T01:56:52.005Z,9.08
2022-10-26T01:59:47.913Z,9.05
2022-10-26T02:02:58.164Z,9.02
2022-10-26T02:05:36.306Z,8.99
2022-10-26T02:08:26.542Z,8.97
2022-10-26T02:11:31.543Z,8.95
2022-10-26T02:14:12.367Z,8.97
2022-10-26T02:16:58.394Z,8.96
2022-10-26T02:19:42.132Z,8.98
2022-10-26T02:22:34.147Z,8.94
2022-10-26T02:25:07.404Z,8.31
2022-10-26T02:27:41.451Z,8.29
2022-10-26T02:30:09.478Z,8.59
2022-10-26T02:32:40.406Z,8.48
2022-10-26T02:35:07.189Z,8.19
2022-10-26T02:37:37.100Z,8.38
2022-10-26T02:40:09.603Z,8.36
2022-10-26T02:42:37.514Z,8.47
2022-10-26T02:45:09.986Z,8.35
2022-10-26T02:47:36.566Z,8.40
2022-10-26T02:50:03.540Z,8.36
2022-10-26T02:52:39.025Z,8.41
2022-10-26T02:55:12.446Z,8.44
2022-10-26T02:57:42.212Z,8.56
2022-10-26T03:00:14.658Z,8.28
2022-10-26T03:02:48.579Z,8.29
2022-10-26T03:05:24.832Z,8.16
2022-10-26T03:07:51.662Z,8.12
2022-10-26T03:10:18.268Z,8.20
2022-10-26T03:12:45.048Z,8.27
2022-10-26T03:15:12.201Z,8.08
2022-10-26T03:17:38.596Z,8.24
2022-10-26T03:20:05.695Z,8.30
2022-10-26T03:22:32.117Z,8.30
2022-10-26T03:24:58.708Z,8.26
2022-10-26T03:27:26.882Z,8.13
2022-10-26T03:29:53.908Z,8.32
2022-10-26T03:32:20.346Z,8.37
2022-10-26T03:34:46.788Z,8.40
2022-10-26T03:37:13.271Z,8.26
2022-10-26T03:39:39.686Z,8.21
2022-10-26T03:42:06.093Z,8.35
2022-10-26T03:44:32.495Z,8.34
2022-10-26T03:46:58.913Z,8.27
2022-10-26T03:49:25.332Z,8.45
2022-10-26T03:51:51.771Z,8.55
2022-10-26T03:54:18.563Z,8.63
2022-10-26T03:56:45.031Z,8.54
2022-10-26T03:59:11.430Z,8.48
2022-10-26T04:01:38.913Z,8.48
2022-10-26T04:04:05.568Z,8.48
2022-10-26T04:06:32.017Z,8.54
2022-10-26T04:09:02.340Z,8.43
2022-10-26T04:11:29.537Z,8.09
2022-10-26T04:13:56.011Z,7.95
2022-10-26T04:16:22.387Z,7.93
2022-10-26T04:18:48.761Z,7.97
2022-10-26T04:21:15.166Z,7.88
2022-10-26T04:23:41.610Z,7.99
2022-10-26T04:26:08.076Z,7.96
2022-10-26T04:28:34.577Z,8.00
2022-10-26T04:31:01.110Z,8.07
2022-10-26T04:33:27.544Z,8.17
2022-10-26T04:35:59.148Z,8.01
2022-10-26T04:38:25.440Z,7.88
2022-10-26T04:40:52.119Z,7.90
2022-10-26T04:43:18.679Z,7.81
2022-10-26T04:45:45.101Z,7.97
2022-10-26T04:48:13.360Z,7.79
2022-10-26T04:50:40.489Z,8.03
2022-10-26T04:53:08.141Z,8.07
2022-10-26T04:55:35.314Z,8.10
2022-10-26T04:58:02.381Z,8.16
2022-10-26T05:00:30.950Z,8.18
2022-10-26T05:03:01.667Z,7.97
2022-10-26T05:05:29.120Z,7.93
2022-10-26T05:07:56.830Z,8.01
2022-10-26T05:10:23.994Z,7.86
2022-10-26T05:12:55.009Z,7.79
2022-10-26T05:15:22.232Z,7.84
2022-10-26T05:18:03.023Z,7.85
2022-10-26T05:20:31.381Z,8.06
2022-10-26T05:22:59.551Z,7.78
2022-10-26T05:25:26.280Z,8.09
2022-10-26T05:27:56.974Z,8.04
2022-10-26T05:30:23.414Z,8.04
2022-10-26T05:32:56.953Z,8.10
2022-10-26T05:35:24.077Z,8.14
2022-10-26T05:37:50.520Z,8.07
2022-10-26T05:40:17.660Z,7.97
2022-10-26T05:42:44.812Z,7.91
2022-10-26T05:45:12.282Z,8.01
2022-10-26T05:47:42.898Z,7.98
2022-10-26T05:50:10.748Z,7.96
2022-10-26T05:52:44.839Z,7.61
2022-10-26T05:55:14.322Z,7.66
2022-10-26T05:57:41.570Z,7.48
2022-10-26T06:00:23.239Z,7.64
2022-10-26T06:02:55.838Z,7.70
2022-10-26T06:05:26.238Z,7.74
2022-10-26T06:07:52.946Z,7.78
2022-10-26T06:10:19.713Z,7.84
2022-10-26T06:12:46.701Z,7.53
2022-10-26T06:15:19.118Z,7.80
2022-10-26T06:18:17.163Z,7.89
2022-10-26T06:21:23.721Z,7.69
2022-10-26T06:24:02.562Z,7.71
2022-10-26T06:26:53.460Z,7.68
2022-10-26T06:29:36.115Z,7.63
2022-10-26T06:32:02.799Z,7.71
2022-10-26T06:34:35.617Z,7.62
2022-10-26T06:37:03.079Z,7.62
2022-10-26T06:39:35.168Z,7.64
2022-10-26T06:42:02.035Z,7.90
2022-10-26T06:44:28.857Z,8.10
2022-10-26T06:47:09.918Z,8.00
2022-10-26T06:49:38.267Z,8.02
2022-10-26T06:52:07.489Z,8.15
2022-10-26T06:55:00.768Z,7.83
2022-10-26T06:57:35.481Z,7.88
2022-10-26T07:00:08.471Z,7.88
2022-10-26T07:02:35.065Z,8.17
2022-10-26T07:05:01.585Z,8.08
2022-10-26T07:07:31.072Z,8.16
2022-10-26T07:09:57.734Z,8.18
2022-10-26T07:12:24.170Z,8.01
2022-10-26T07:14:50.625Z,8.06
2022-10-26T07:17:17.068Z,8.31
2022-10-26T07:19:44.845Z,8.61
2022-10-26T07:22:11.494Z,8.61
2022-10-26T07:24:37.991Z,8.79
2022-10-26T07:27:04.434Z,8.84
2022-10-26T07:29:30.921Z,8.71
2022-10-26T07:31:57.486Z,8.51
2022-10-26T07:34:23.990Z,8.78
2022-10-26T07:36:51.527Z,8.70
2022-10-26T07:39:18.062Z,8.56
2022-10-26T07:41:45.589Z,8.16
2022-10-26T07:44:11.999Z,8.61
2022-10-26T07:46:38.400Z,8.71
2022-10-26T07:49:04.814Z,8.78
2022-10-26T07:51:31.238Z,8.79
2022-10-26T07:53:57.716Z,8.86
2022-10-26T07:56:24.177Z,8.78
2022-10-26T07:58:53.083Z,9.22
2022-10-26T08:01:20.129Z,9.31
2022-10-26T08:03:46.901Z,9.43
2022-10-26T08:06:13.738Z,9.45
2022-10-26T08:08:43.615Z,9.69
2022-10-26T08:11:13.440Z,9.76
2022-10-26T08:13:39.933Z,9.99
2022-10-26T08:16:06.886Z,9.51
2022-10-26T08:18:33.630Z,9.81
2022-10-26T08:21:12.281Z,10.21
2022-10-26T08:23:41.907Z,10.41
2022-10-26T08:26:11.355Z,10.66
2022-10-26T08:28:38.651Z,11.09
2022-10-26T08:31:05.807Z,11.34
2022-10-26T08:33:32.543Z,12.07
2022-10-26T08:36:00.859Z,12.73
2022-10-26T08:38:28.218Z,13.02
2022-10-26T08:40:57.485Z,13.76
2022-10-26T08:44:02.007Z,14.22
2022-10-26T08:46:35.055Z,14.63
2022-10-26T08:49:11.949Z,13.47
2022-10-26T08:51:42.526Z,12.07
2022-10-26T08:54:48.944Z,12.43
2022-10-26T08:57:22.441Z,12.85
2022-10-26T08:59:53.328Z,12.88
2022-10-26T09:02:20.927Z,13.17
2022-10-26T09:04:47.441Z,13.36
2022-10-26T09:07:55.802Z,13.19
2022-10-26T09:10:41.477Z,13.98
2022-10-26T09:13:36.910Z,14.38
2022-10-26T09:16:24.963Z,14.26
2022-10-26T09:19:23.580Z,14.64
2022-10-26T09:22:12.361Z,15.58
2022-10-26T09:25:02.864Z,15.91
2022-10-26T09:27:43.241Z,16.03
2022-10-26T09:30:15.467Z,16.40
2022-10-26T09:32:46.428Z,16.97
2022-10-26T09:35:23.063Z,17.32
2022-10-26T09:38:06.341Z,17.42
2022-10-26T09:40:47.773Z,17.52
2022-10-26T09:43:18.530Z,17.15
2022-10-26T09:45:49.090Z,18.01
2022-10-26T09:48:22.533Z,17.95
2022-10-26T09:50:51.313Z,17.18
2022-10-26T09:53:17.835Z,16.77
2022-10-26T09:55:47.418Z,17.11
2022-10-26T09:58:47.180Z,16.74
2022-10-26T10:01:30.330Z,16.29
2022-10-26T10:04:28.409Z,15.97
2022-10-26T10:07:00.607Z,17.08
2022-10-26T10:09:27.167Z,17.08
2022-10-26T10:11:57.916Z,16.09
2022-10-26T10:14:28.518Z,16.22
2022-10-26T10:16:56.408Z,16.50
2022-10-26T10:19:25.711Z,17.05
2022-10-26T10:21:56.635Z,17.26
2022-10-26T10:24:24.141Z,16.81
2022-10-26T10:26:59.855Z,16.67
2022-10-26T10:29:42.293Z,17.35
2022-10-26T10:32:15.426Z,17.13
2022-10-26T10:34:42.232Z,16.95
2022-10-26T10:37:25.297Z,16.60
2022-10-26T10:40:00.531Z,16.88
2022-10-26T10:42:37.074Z,16.24
2022-10-26T10:45:05.287Z,16.52
2022-10-26T10:47:33.572Z,16.41
2022-10-26T10:50:19.938Z,17.12
2022-10-26T10:52:47.310Z,16.85
2022-10-26T10:55:13.948Z,16.92
2022-10-26T10:58:05.139Z,16.63
2022-10-26T11:00:36.255Z,16.89
2022-10-26T11:03:19.200Z,17.76
2022-10-26T11:06:05.015Z,17.49
2022-10-26T11:08:37.206Z,17.75
2022-10-26T11:11:07.017Z,16.87
2022-10-26T11:13:51.549Z,17.85
2022-10-26T11:16:30.202Z,17.79
2022-10-26T11:19:04.077Z,17.40
2022-10-26T11:21:33.900Z,17.06
2022-10-26T11:24:11.385Z,18.00
2022-10-26T11:26:46.234Z,18.62
2022-10-26T11:29:39.861Z,18.95
2022-10-26T11:32:16.689Z,19.62
2022-10-26T11:34:50.491Z,19.78
2022-10-26T11:37:25.833Z,20.65
2022-10-26T11:40:36.678Z,20.42
2022-10-26T11:43:08.820Z,19.37
2022-10-26T11:45:39.734Z,20.81
2022-10-26T11:48:51.257Z,21.35
2022-10-26T11:51:24.202Z,20.76
2022-10-26T11:53:51.505Z,21.03
2022-10-26T11:56:38.463Z,22.88
2022-10-26T11:59:06.996Z,23.55
2022-10-26T12:01:34.362Z,21.23
2022-10-26T12:04:02.465Z,21.90
2022-10-26T12:06:32.701Z,22.21
2022-10-26T12:09:12.866Z,22.37
2022-10-26T12:12:02.841Z,22.70
2022-10-26T12:15:04.100Z,22.15
2022-10-26T12:17:35.063Z,21.95
2022-10-26T12:20:26.653Z,20.15
2022-10-26T12:22:53.338Z,18.42
2022-10-26T12:25:22.018Z,17.69
2022-10-26T12:30:19.664Z,18.06
2022-10-26T12:32:48.330Z,17.84
2022-10-26T12:35:40.167Z,19.43
2022-10-26T12:38:21.719Z,20.43
2022-10-26T12:40:48.994Z,20.97
2022-10-26T12:43:15.338Z,21.66
2022-10-26T12:45:43.616Z,22.75
2022-10-26T12:48:38.505Z,23.44
2022-10-26T12:51:27.225Z,22.43
2022-10-26T12:54:02.585Z,22.22
2022-10-26T12:56:50.703Z,20.26
2022-10-26T12:59:40.543Z,18.79
2022-10-26T13:02:25.283Z,18.30
2022-10-26T13:05:22.422Z,17.40
2022-10-26T13:07:49.548Z,17.09
2022-10-26T13:10:24.101Z,16.27
2022-10-26T13:12:57.023Z,16.41
2022-10-26T13:15:26.143Z,16.54
2022-10-26T13:18:14.264Z,16.71
2022-10-26T13:21:11.550Z,15.97
2022-10-26T13:23:40.708Z,16.00
2022-10-26T13:26:17.249Z,16.22
2022-10-26T13:29:01.537Z,16.06
2022-10-26T13:31:34.465Z,15.77
2022-10-26T13:34:04.423Z,16.00
2022-10-26T13:36:50.025Z,15.68
2022-10-26T13:39:26.470Z,16.03
2022-10-26T13:41:55.566Z,16.08
2022-10-26T13:44:39.571Z,16.12
2022-10-26T13:47:21.952Z,16.21
2022-10-26T13:49:52.966Z,16.10
2022-10-26T13:52:28.971Z,16.26
2022-10-26T13:54:59.880Z,16.29
2022-10-26T13:57:40.528Z,15.86
2022-10-26T14:00:19.248Z,16.02
2022-10-26T14:02:45.790Z,15.84
2022-10-26T14:05:16.866Z,15.85
2022-10-26T14:07:54.045Z,16.01
2022-10-26T14:10:24.884Z,16.15
2022-10-26T14:12:52.005Z,16.16
2022-10-26T14:15:30.819Z,15.98
2022-10-26T14:17:59.650Z,15.95
2022-10-26T14:20:27.866Z,16.07
2022-10-26T14:22:54.421Z,15.95
2022-10-26T14:25:36.155Z,15.96
2022-10-26T14:28:29.743Z,16.14
2022-10-26T14:31:21.046Z,16.01
2022-10-26T14:33:47.605Z,15.91
2022-10-26T14:36:15.643Z,16.18
2022-10-26T14:38:46.443Z,16.15
2022-10-26T14:41:15.978Z,15.91
2022-10-26T14:43:43.900Z,15.97
2022-10-26T14:46:18.553Z,16.27
2022-10-26T14:48:54.772Z,16.10
2022-10-26T14:51:26.655Z,16.04
2022-10-26T14:53:56.396Z,15.94
2022-10-26T14:56:31.354Z,16.01
2022-10-26T14:58:58.603Z,15.89
2022-10-26T15:01:30.318Z,16.13
2022-10-26T15:04:06.258Z,16.07
2022-10-26T15:06:42.074Z,16.26
2022-10-26T15:09:32.888Z,16.09
2022-10-26T15:11:59.956Z,15.94
2022-10-26T15:14:26.389Z,16.12
2022-10-26T15:16:56.703Z,16.00
2022-10-26T15:19:24.044Z,16.14
2022-10-26T15:21:52.408Z,16.10
2022-10-26T15:24:18.976Z,16.18
2022-10-26T15:26:45.428Z,16.13
2022-10-26T15:29:42.489Z,15.95
2022-10-26T15:32:31.821Z,16.01
2022-10-26T15:35:19.842Z,15.76
2022-10-26T15:37:51.445Z,15.67
2022-10-26T15:40:18.489Z,15.85
2022-10-26T15:42:49.114Z,15.72
2022-10-26T15:45:20.988Z,15.60
2022-10-26T15:47:47.607Z,15.66
2022-10-26T15:50:19.814Z,15.40
2022-10-26T15:52:49.151Z,15.34
2022-10-26T15:55:17.430Z,15.15
2022-10-26T15:57:43.973Z,15.08
2022-10-26T16:00:16.757Z,15.20
2022-10-26T16:02:45.165Z,15.19
2022-10-26T16:05:13.893Z,15.14
2022-10-26T16:07:43.265Z,15.12
2022-10-26T16:10:16.720Z,14.85
2022-10-26T16:12:43.175Z,14.95
2022-10-26T16:15:16.562Z,15.02
2022-10-26T16:17:43.028Z,14.75
2022-10-26T16:20:15.205Z,14.82
2022-10-26T16:22:46.894Z,14.79
2022-10-26T16:25:13.875Z,14.68
2022-10-26T16:27:40.727Z,14.77
2022-10-26T16:30:07.888Z,14.85
2022-10-26T16:32:34.485Z,14.70
2022-10-26T16:35:00.972Z,14.37
2022-10-26T16:37:30.212Z,14.48
2022-10-26T16:39:57.086Z,14.59
2022-10-26T16:42:23.672Z,14.62
2022-10-26T16:44:50.167Z,14.48
2022-10-26T16:47:16.733Z,14.37
2022-10-26T16:49:43.257Z,14.23
2022-10-26T16:52:10.569Z,14.17
2022-10-26T16:54:37.024Z,14.21
2022-10-26T16:57:03.820Z,14.25
2022-10-26T16:59:30.587Z,14.01
2022-10-26T17:01:57.086Z,14.00
2022-10-26T17:04:23.958Z,13.93
2022-10-26T17:06:50.676Z,14.10
2022-10-26T17:09:17.100Z,13.98
2022-10-26T17:11:43.551Z,14.09
2022-10-26T17:14:10.042Z,14.21
2022-10-26T17:16:36.530Z,14.27
2022-10-26T17:19:03.153Z,14.20
2022-10-26T17:21:32.351Z,14.23
2022-10-26T17:23:58.967Z,14.11
2022-10-26T17:26:25.686Z,14.02
2022-10-26T17:28:53.597Z,13.99
2022-10-26T17:31:20.335Z,13.87
2022-10-26T17:33:50.872Z,13.93
2022-10-26T17:36:22.519Z,14.07
2022-10-26T17:38:51.441Z,13.81
2022-10-26T17:41:20.065Z,13.73
2022-10-26T17:43:48.324Z,13.81
2022-10-26T17:46:17.860Z,13.98
2022-10-26T17:48:44.480Z,13.90
2022-10-26T17:51:17.328Z,13.81
2022-10-26T17:53:47.430Z,13.89
2022-10-26T17:56:22.178Z,13.88
2022-10-26T17:59:00.231Z,13.90
2022-10-26T18:01:28.288Z,13.93
2022-10-26T18:03:55.685Z,13.75
2022-10-26T18:06:22.569Z,13.62
2022-10-26T18:08:49.065Z,13.70
2022-10-26T18:11:22.508Z,13.80
2022-10-26T18:13:53.638Z,13.77
2022-10-26T18:16:22.144Z,14.04
2022-10-26T18:18:52.066Z,13.92
2022-10-26T18:21:20.376Z,13.78
2022-10-26T18:23:47.254Z,13.79
2022-10-26T18:26:19.559Z,13.90
2022-10-26T18:28:46.332Z,13.77
2022-10-26T18:31:15.858Z,13.85
2022-10-26T18:33:42.649Z,13.73
2022-10-26T18:36:12.008Z,13.73
2022-10-26T18:38:39.954Z,13.67
2022-10-26T18:41:07.926Z,13.76
2022-10-26T18:43:34.388Z,13.74
2022-10-26T18:46:06.135Z,13.83
2022-10-26T18:48:32.593Z,13.80
2022-10-26T18:51:06.474Z,13.89
2022-10-26T18:53:34.718Z,13.83
2022-10-26T18:56:03.258Z,13.88
2022-10-26T18:58:35.020Z,13.87
2022-10-26T19:01:07.062Z,13.63
2022-10-26T19:03:33.974Z,13.75
2022-10-26T19:06:22.247Z,13.77
2022-10-26T19:08:48.719Z,13.71
2022-10-26T19:11:17.781Z,13.88
2022-10-26T19:13:44.536Z,13.97
2022-10-26T19:16:17.230Z,13.94
2022-10-26T19:18:55.995Z,13.65
2022-10-26T19:21:22.816Z,13.89
2022-10-26T19:23:54.509Z,13.77
2022-10-26T19:26:22.220Z,13.55
2022-10-26T19:28:57.525Z,13.55
2022-10-26T19:31:27.279Z,13.47
2022-10-26T19:33:56.406Z,13.54
2022-10-26T19:36:22.919Z,13.53
2022-10-26T19:38:49.490Z,13.47
2022-10-26T19:41:16.882Z,13.58
2022-10-26T19:43:44.755Z,13.58
2022-10-26T19:46:13.860Z,13.43
2022-10-26T19:48:41.216Z,13.43
2022-10-26T19:51:08.564Z,13.55
2022-10-26T19:53:35.650Z,13.48
2022-10-26T19:56:02.553Z,13.46
2022-10-26T19:58:31.261Z,13.38
2022-10-26T20:01:02.671Z,13.31
2022-10-26T20:03:29.864Z,13.20
2022-10-26T20:05:57.716Z,13.01
2022-10-26T20:08:25.027Z,13.04
2022-10-26T20:10:57.127Z,13.02
2022-10-26T20:13:24.344Z,13.06
2022-10-26T20:15:51.826Z,13.00
2022-10-26T20:18:18.838Z,13.10
2022-10-26T20:20:45.585Z,12.84
2022-10-26T20:23:12.417Z,12.80
2022-10-26T20:25:45.113Z,12.74
2022-10-26T20:28:11.886Z,12.99
2022-10-26T20:30:38.430Z,12.91
2022-10-26T20:33:05.271Z,12.85
2022-10-26T20:35:32.460Z,12.90
2022-10-26T20:37:59.450Z,12.90
2022-10-26T20:40:27.668Z,12.87
2022-10-26T20:42:54.675Z,12.94
2022-10-26T20:45:31.652Z,12.97
2022-10-26T20:48:00.082Z,12.92
2022-10-26T20:50:29.374Z,12.93
2022-10-26T20:53:10.732Z,12.89
2022-10-26T20:55:45.483Z,12.86
2022-10-26T20:58:21.394Z,12.98
2022-10-26T21:00:55.721Z,13.03
2022-10-26T21:03:22.176Z,12.87
2022-10-26T21:05:48.600Z,12.90
2022-10-26T21:08:15.086Z,12.91
2022-10-26T21:10:41.587Z,12.77
2022-10-26T21:13:08.031Z,12.82
2022-10-26T21:15:35.827Z,12.81
2022-10-26T21:18:02.895Z,12.75
2022-10-26T21:20:29.654Z,12.73
2022-10-26T21:22:56.082Z,12.66
2022-10-26T21:25:22.722Z,12.62
2022-10-26T21:27:53.906Z,12.59
2022-10-26T21:30:20.436Z,12.67
2022-10-26T21:32:46.935Z,12.71
2022-10-26T21:35:13.455Z,12.58
2022-10-26T21:37:39.857Z,12.45
2022-10-26T21:40:06.950Z,12.32
2022-10-26T21:42:33.370Z,12.48
2022-10-26T21:44:59.783Z,12.36
2022-10-26T21:47:26.324Z,12.17
2022-10-26T21:49:52.780Z,12.26
2022-10-26T21:52:19.315Z,12.45
2022-10-26T21:54:45.772Z,12.51
2022-10-26T21:57:12.197Z,12.34
2022-10-26T21:59:38.762Z,12.41
2022-10-26T22:02:05.410Z,12.42
2022-10-26T22:04:31.988Z,12.35
2022-10-26T22:06:58.448Z,12.43
2022-10-26T22:09:24.911Z,12.41
2022-10-26T22:11:51.340Z,12.39
2022-10-26T22:14:18.282Z,12.32
2022-10-26T22:16:44.740Z,12.32
2022-10-26T22:19:12.124Z,12.28
2022-10-26T22:21:41.044Z,12.31
2022-10-26T22:24:08.058Z,12.26
2022-10-26T22:26:36.250Z,12.25
2022-10-26T22:29:03.074Z,12.20
2022-10-26T22:31:32.249Z,12.20
2022-10-26T22:34:07.362Z,12.20
2022-10-26T22:36:34.981Z,12.19
2022-10-26T22:39:01.558Z,12.23
2022-10-26T22:41:28.093Z,12.18
2022-10-26T22:43:54.590Z,12.07
2022-10-26T22:46:23.878Z,12.11
2022-10-26T22:48:58.153Z,12.02
2022-10-26T22:51:26.967Z,12.00
2022-10-26T22:53:55.074Z,12.00
2022-10-26T22:56:23.352Z,12.01
2022-10-26T22:58:51.975Z,12.04
2022-10-26T23:01:27.642Z,11.97
2022-10-26T23:03:57.489Z,12.00
2022-10-26T23:06:25.783Z,11.90
2022-10-26T23:08:52.172Z,11.95
2022-10-26T23:11:20.603Z,11.90
2022-10-26T23:13:47.533Z,11.86
2022-10-26T23:16:17.861Z,11.81
2022-10-26T23:18:44.406Z,11.78
2022-10-26T23:21:12.679Z,11.71
2022-10-26T23:23:39.639Z,11.71
2022-10-26T23:26:12.194Z,11.64
2022-10-26T23:28:39.482Z,11.71
2022-10-26T23:31:06.557Z,11.77
2022-10-26T23:33:33.619Z,11.79
2022-10-26T23:36:01.185Z,11.76
2022-10-26T23:38:27.723Z,11.77
2022-10-26T23:40:58.893Z,11.70
2022-10-26T23:43:26.867Z,11.65
2022-10-26T23:45:56.594Z,11.53
2022-10-26T23:48:23.221Z,11.47
2022-10-26T23:50:50.946Z,11.49
2022-10-26T23:53:21.449Z,11.38
2022-10-26T23:55:48.305Z,11.58
2022-10-26T23:58:15.529Z,11.45
